createdAt,value
2018-06-10T00:00:17.388Z,16.40
2018-06-10T00:01:17.444Z,16.38
2018-06-10T00:02:17.713Z,16.38
2018-06-10T00:03:17.984Z,16.36
2018-06-10T00:04:17.262Z,16.35
2018-06-10T00:05:17.530Z,16.36
2018-06-10T00:06:17.815Z,16.33
2018-06-10T00:07:18.070Z,16.36
2018-06-10T00:08:17.357Z,16.33
2018-06-10T00:09:17.643Z,16.29
2018-06-10T00:10:17.921Z,16.32
2018-06-10T00:11:17.974Z,16.31
2018-06-10T00:12:17.487Z,16.32
2018-06-10T00:13:17.768Z,16.35
2018-06-10T00:14:18.064Z,16.35
2018-06-10T00:15:17.371Z,16.38
2018-06-10T00:16:17.636Z,16.39
2018-06-10T00:17:17.921Z,16.42
2018-06-10T00:18:17.205Z,16.40
2018-06-10T00:19:17.487Z,16.39
2018-06-10T00:20:17.790Z,16.39
2018-06-10T00:21:17.827Z,16.39
2018-06-10T00:22:18.097Z,16.39
2018-06-10T00:23:17.399Z,16.43
2018-06-10T00:24:17.681Z,16.42
2018-06-10T00:25:17.958Z,16.42
2018-06-10T00:26:17.239Z,16.43
2018-06-10T00:27:17.515Z,16.46
2018-06-10T00:28:17.811Z,16.49
2018-06-10T00:29:18.088Z,16.47
2018-06-10T00:30:17.675Z,16.49
2018-06-10T00:31:17.447Z,16.45
2018-06-10T00:32:17.726Z,16.47
2018-06-10T00:33:18.021Z,16.50
2018-06-10T00:34:17.296Z,16.50
2018-06-10T00:35:17.568Z,16.52
2018-06-10T00:36:17.879Z,16.52
2018-06-10T00:37:17.172Z,16.47
2018-06-10T00:38:17.468Z,16.49
2018-06-10T00:39:17.749Z,16.46
2018-06-10T00:40:18.010Z,16.46
2018-06-10T00:41:18.090Z,16.47
2018-06-10T00:42:17.385Z,16.43
2018-06-10T00:43:17.674Z,16.45
2018-06-10T00:44:17.943Z,16.39
2018-06-10T00:45:17.224Z,16.39
2018-06-10T00:46:17.548Z,16.38
2018-06-10T00:47:17.824Z,16.35
2018-06-10T00:48:18.099Z,16.36
2018-06-10T00:49:17.398Z,16.36
2018-06-10T00:50:17.720Z,16.33
2018-06-10T00:51:17.776Z,16.33
2018-06-10T00:52:18.067Z,16.36
2018-06-10T00:53:17.365Z,16.33
2018-06-10T00:54:17.648Z,16.31
2018-06-10T00:55:17.940Z,16.31
2018-06-10T00:56:17.216Z,16.32
2018-06-10T00:57:17.520Z,16.36
2018-06-10T00:58:17.812Z,16.38
2018-06-10T00:59:18.099Z,16.38
2018-06-10T01:00:17.397Z,16.42
2018-06-10T01:01:17.456Z,16.43
2018-06-10T01:02:17.736Z,16.45
2018-06-10T01:03:18.023Z,16.49
2018-06-10T01:04:17.304Z,16.43
2018-06-10T01:05:17.605Z,16.35
2018-06-10T01:06:17.901Z,16.29
2018-06-10T01:07:17.199Z,16.28
2018-06-10T01:08:17.484Z,16.27
2018-06-10T01:09:17.790Z,16.27
2018-06-10T01:10:18.071Z,16.22
2018-06-10T01:11:17.133Z,16.12
2018-06-10T01:12:17.428Z,16.12
2018-06-10T01:13:17.729Z,16.04
2018-06-10T01:14:18.026Z,15.98
2018-06-10T01:15:17.304Z,15.95
2018-06-10T01:16:17.580Z,15.91
2018-06-10T01:17:17.855Z,15.88
2018-06-10T01:18:17.403Z,15.85
2018-06-10T01:19:17.691Z,15.82
2018-06-10T01:20:17.981Z,15.82
2018-06-10T01:21:18.033Z,15.81
2018-06-10T01:22:17.292Z,15.76
2018-06-10T01:23:17.547Z,15.77
2018-06-10T01:24:17.803Z,15.76
2018-06-10T01:25:18.075Z,15.73
2018-06-10T01:26:17.358Z,15.71
2018-06-10T01:27:17.640Z,15.77
2018-06-10T01:28:17.944Z,15.80
2018-06-10T01:29:17.216Z,15.87
2018-06-10T01:30:17.508Z,15.81
2018-06-10T01:31:17.535Z,15.85
2018-06-10T01:32:17.788Z,15.85
2018-06-10T01:33:18.062Z,15.81
2018-06-10T01:34:17.848Z,15.84
2018-06-10T01:35:17.157Z,15.84
2018-06-10T01:36:17.459Z,15.88
2018-06-10T01:37:17.737Z,15.91
2018-06-10T01:38:18.003Z,15.94
2018-06-10T01:39:17.262Z,15.98
2018-06-10T01:40:17.536Z,15.95
2018-06-10T01:41:17.600Z,15.94
2018-06-10T01:42:18.200Z,15.97
2018-06-10T01:43:17.498Z,15.94
2018-06-10T01:44:17.777Z,16.00
2018-06-10T01:45:18.056Z,15.98
2018-06-10T01:46:17.337Z,15.98
2018-06-10T01:47:17.621Z,15.97
2018-06-10T01:48:17.881Z,16.01
2018-06-10T01:49:17.177Z,16.07
2018-06-10T01:50:17.466Z,15.98
2018-06-10T01:51:17.534Z,16.00
2018-06-10T01:52:17.806Z,15.98
2018-06-10T01:53:18.103Z,16.02
2018-06-10T01:54:17.390Z,16.02
2018-06-10T01:55:17.689Z,16.05
2018-06-10T01:56:17.965Z,15.95
2018-06-10T01:57:17.251Z,15.80
2018-06-10T01:58:17.528Z,15.78
2018-06-10T01:59:17.787Z,15.70
2018-06-10T02:00:18.051Z,15.67
2018-06-10T02:01:17.131Z,15.67
2018-06-10T02:02:17.409Z,15.64
2018-06-10T02:03:17.695Z,15.66
2018-06-10T02:04:17.968Z,15.63
2018-06-10T02:05:17.763Z,15.66
2018-06-10T02:06:18.038Z,15.64
2018-06-10T02:07:17.309Z,15.63
2018-06-10T02:08:17.572Z,15.62
2018-06-10T02:09:17.881Z,15.59
2018-06-10T02:10:17.168Z,15.62
2018-06-10T02:11:17.238Z,15.63
2018-06-10T02:12:17.538Z,15.63
2018-06-10T02:13:17.849Z,15.62
2018-06-10T02:14:17.143Z,15.64
2018-06-10T02:15:17.455Z,15.63
2018-06-10T02:16:17.738Z,15.64
2018-06-10T02:17:18.005Z,15.63
2018-06-10T02:18:17.259Z,15.67
2018-06-10T02:19:17.560Z,15.67
2018-06-10T02:20:17.875Z,15.69
2018-06-10T02:21:17.940Z,15.71
2018-06-10T02:22:17.206Z,15.74
2018-06-10T02:23:17.459Z,15.73
2018-06-10T02:24:17.735Z,15.70
2018-06-10T02:25:18.028Z,15.69
2018-06-10T02:26:17.310Z,15.67
2018-06-10T02:27:17.587Z,15.73
2018-06-10T02:28:17.869Z,15.74
2018-06-10T02:29:17.141Z,15.73
2018-06-10T02:30:17.421Z,15.73
2018-06-10T02:31:17.818Z,15.73
2018-06-10T02:32:18.098Z,15.76
2018-06-10T02:33:17.403Z,15.73
2018-06-10T02:34:17.709Z,15.74
2018-06-10T02:35:18.015Z,15.77
2018-06-10T02:36:17.294Z,15.76
2018-06-10T02:37:17.619Z,15.77
2018-06-10T02:38:17.899Z,15.77
2018-06-10T02:39:17.161Z,15.77
2018-06-10T02:40:17.452Z,15.78
2018-06-10T02:41:17.532Z,15.81
2018-06-10T02:42:17.803Z,15.81
2018-06-10T02:43:18.103Z,15.80
2018-06-10T02:44:17.401Z,15.78
2018-06-10T02:45:17.694Z,15.81
2018-06-10T02:46:17.978Z,15.87
2018-06-10T02:47:17.258Z,15.91
2018-06-10T02:48:17.539Z,15.97
2018-06-10T02:49:17.824Z,15.95
2018-06-10T02:50:18.114Z,15.98
2018-06-10T02:51:17.193Z,15.98
2018-06-10T02:52:17.459Z,16.02
2018-06-10T02:53:17.767Z,16.01
2018-06-10T02:54:18.043Z,16.04
2018-06-10T02:55:17.334Z,16.07
2018-06-10T02:56:17.616Z,16.12
2018-06-10T02:57:17.752Z,16.18
2018-06-10T02:58:18.047Z,16.22
2018-06-10T02:59:17.392Z,16.21
2018-06-10T03:00:17.669Z,16.25
2018-06-10T03:01:17.730Z,16.24
2018-06-10T03:02:18.022Z,16.24
2018-06-10T03:03:17.306Z,16.24
2018-06-10T03:04:17.607Z,16.25
2018-06-10T03:05:17.888Z,16.28
2018-06-10T03:06:17.173Z,16.31
2018-06-10T03:07:17.458Z,16.35
2018-06-10T03:08:17.736Z,16.35
2018-06-10T03:09:18.293Z,16.35
2018-06-10T03:10:17.594Z,16.35
2018-06-10T03:11:17.652Z,16.32
2018-06-10T03:12:17.947Z,16.33
2018-06-10T03:13:17.227Z,16.33
2018-06-10T03:14:17.512Z,16.36
2018-06-10T03:15:17.796Z,16.40
2018-06-10T03:16:18.090Z,16.38
2018-06-10T03:17:17.358Z,16.42
2018-06-10T03:18:17.635Z,16.46
2018-06-10T03:19:17.926Z,16.42
2018-06-10T03:20:17.212Z,16.42
2018-06-10T03:21:17.281Z,16.40
2018-06-10T03:22:17.566Z,16.40
2018-06-10T03:23:17.841Z,16.38
2018-06-10T03:24:18.116Z,16.38
2018-06-10T03:25:17.417Z,16.38
2018-06-10T03:26:17.706Z,16.40
2018-06-10T03:27:18.005Z,16.35
2018-06-10T03:28:17.302Z,16.36
2018-06-10T03:29:17.595Z,16.42
2018-06-10T03:30:17.877Z,16.43
2018-06-10T03:31:17.961Z,16.39
2018-06-10T03:32:17.228Z,16.36
2018-06-10T03:33:17.505Z,16.33
2018-06-10T03:34:17.791Z,16.33
2018-06-10T03:35:18.065Z,16.32
2018-06-10T03:36:17.372Z,16.31
2018-06-10T03:37:17.671Z,16.22
2018-06-10T03:38:17.970Z,16.21
2018-06-10T03:39:17.265Z,16.21
2018-06-10T03:40:17.548Z,16.19
2018-06-10T03:41:17.631Z,16.19
2018-06-10T03:42:17.910Z,16.24
2018-06-10T03:43:17.191Z,16.24
2018-06-10T03:44:17.476Z,16.24
2018-06-10T03:45:17.770Z,16.25
2018-06-10T03:46:18.046Z,16.25
2018-06-10T03:47:17.523Z,16.27
2018-06-10T03:48:17.816Z,16.28
2018-06-10T03:49:18.078Z,16.25
2018-06-10T03:50:17.368Z,16.27
2018-06-10T03:51:17.443Z,16.25
2018-06-10T03:52:17.732Z,16.25
2018-06-10T03:53:18.021Z,16.27
2018-06-10T03:54:17.295Z,16.29
2018-06-10T03:55:17.576Z,16.31
2018-06-10T03:56:17.867Z,16.32
2018-06-10T03:57:17.429Z,16.31
2018-06-10T03:58:17.716Z,16.33
2018-06-10T03:59:17.985Z,16.38
2018-06-10T04:00:17.279Z,16.39
2018-06-10T04:01:17.336Z,16.40
2018-06-10T04:02:17.644Z,16.47
2018-06-10T04:03:17.911Z,16.52
2018-06-10T04:04:17.196Z,16.50
2018-06-10T04:05:17.477Z,16.52
2018-06-10T04:06:17.757Z,16.53
2018-06-10T04:07:18.041Z,16.55
2018-06-10T04:08:17.329Z,16.62
2018-06-10T04:09:17.584Z,16.66
2018-06-10T04:10:17.873Z,16.70
2018-06-10T04:11:17.950Z,16.76
2018-06-10T04:12:17.205Z,16.81
2018-06-10T04:13:17.505Z,16.84
2018-06-10T04:14:17.797Z,16.90
2018-06-10T04:15:18.074Z,16.88
2018-06-10T04:16:17.339Z,16.97
2018-06-10T04:17:17.608Z,16.98
2018-06-10T04:18:17.885Z,17.01
2018-06-10T04:19:17.181Z,17.07
2018-06-10T04:20:17.462Z,17.08
2018-06-10T04:21:17.510Z,17.13
2018-06-10T04:22:17.780Z,17.07
2018-06-10T04:23:18.066Z,17.11
2018-06-10T04:24:17.366Z,17.11
2018-06-10T04:25:17.637Z,17.13
2018-06-10T04:26:17.964Z,17.13
2018-06-10T04:27:17.239Z,17.10
2018-06-10T04:28:17.532Z,17.15
2018-06-10T04:29:18.104Z,17.17
2018-06-10T04:30:17.391Z,17.18
2018-06-10T04:31:17.435Z,17.25
2018-06-10T04:32:17.717Z,17.28
2018-06-10T04:33:18.007Z,17.31
2018-06-10T04:34:17.446Z,17.33
2018-06-10T04:35:17.732Z,17.38
2018-06-10T04:36:18.008Z,17.45
2018-06-10T04:37:17.287Z,17.53
2018-06-10T04:38:17.553Z,17.59
2018-06-10T04:39:17.829Z,17.63
2018-06-10T04:40:18.114Z,17.66
2018-06-10T04:41:17.202Z,17.68
2018-06-10T04:42:17.483Z,17.74
2018-06-10T04:43:17.771Z,17.77
2018-06-10T04:44:18.056Z,17.77
2018-06-10T04:45:17.356Z,17.87
2018-06-10T04:46:17.636Z,17.87
2018-06-10T04:47:17.927Z,17.89
2018-06-10T04:48:17.223Z,17.94
2018-06-10T04:49:17.483Z,17.93
2018-06-10T04:50:17.782Z,17.94
2018-06-10T04:51:17.840Z,17.94
2018-06-10T04:52:18.110Z,17.93
2018-06-10T04:53:17.406Z,18.00
2018-06-10T04:54:17.688Z,18.08
2018-06-10T04:55:17.973Z,18.17
2018-06-10T04:56:17.261Z,18.17
2018-06-10T04:57:17.550Z,18.15
2018-06-10T04:58:17.812Z,18.19
2018-06-10T04:59:18.120Z,18.28
2018-06-10T05:00:17.384Z,18.35
2018-06-10T05:01:17.474Z,18.45
2018-06-10T05:02:17.758Z,18.49
2018-06-10T05:03:18.032Z,18.46
2018-06-10T05:04:17.312Z,18.55
2018-06-10T05:05:17.591Z,18.60
2018-06-10T05:06:17.885Z,18.60
2018-06-10T05:07:17.167Z,18.62
2018-06-10T05:08:17.435Z,18.63
2018-06-10T05:09:17.736Z,18.62
2018-06-10T05:10:18.016Z,18.59
2018-06-10T05:11:18.066Z,18.63
2018-06-10T05:12:17.340Z,18.65
2018-06-10T05:13:17.640Z,18.70
2018-06-10T05:14:17.952Z,18.72
2018-06-10T05:15:17.243Z,18.69
2018-06-10T05:16:17.525Z,18.66
2018-06-10T05:17:18.086Z,18.63
2018-06-10T05:18:17.377Z,18.65
2018-06-10T05:19:17.646Z,18.77
2018-06-10T05:20:17.918Z,18.79
2018-06-10T05:21:18.002Z,18.83
2018-06-10T05:22:17.301Z,18.79
2018-06-10T05:23:17.593Z,18.79
2018-06-10T05:24:17.866Z,18.73
2018-06-10T05:25:17.160Z,18.76
2018-06-10T05:26:17.446Z,18.73
2018-06-10T05:27:17.719Z,18.73
2018-06-10T05:28:18.027Z,18.80
2018-06-10T05:29:17.305Z,18.86
2018-06-10T05:30:17.605Z,18.88
2018-06-10T05:31:17.643Z,18.84
2018-06-10T05:32:17.929Z,18.80
2018-06-10T05:33:17.231Z,18.77
2018-06-10T05:34:17.509Z,18.87
2018-06-10T05:35:17.791Z,18.87
2018-06-10T05:36:18.087Z,18.83
2018-06-10T05:37:17.370Z,18.80
2018-06-10T05:38:17.658Z,18.80
2018-06-10T05:39:17.915Z,18.86
2018-06-10T05:40:17.213Z,18.88
2018-06-10T05:41:17.272Z,18.88
2018-06-10T05:42:17.560Z,18.86
2018-06-10T05:43:17.830Z,18.83
2018-06-10T05:44:18.132Z,18.86
2018-06-10T05:45:17.432Z,18.90
2018-06-10T05:46:17.734Z,18.98
2018-06-10T05:47:18.035Z,19.00
2018-06-10T05:48:17.317Z,19.04
2018-06-10T05:49:17.589Z,19.05
2018-06-10T05:50:17.847Z,19.10
2018-06-10T05:51:17.974Z,19.14
2018-06-10T05:52:17.378Z,19.20
2018-06-10T05:53:17.686Z,19.28
2018-06-10T05:54:17.974Z,19.32
2018-06-10T05:55:17.251Z,19.37
2018-06-10T05:56:17.554Z,19.45
2018-06-10T05:57:17.841Z,19.49
2018-06-10T05:58:17.118Z,19.53
2018-06-10T05:59:17.397Z,19.63
2018-06-10T06:00:17.721Z,19.70
2018-06-10T06:01:17.757Z,19.76
2018-06-10T06:02:18.027Z,19.77
2018-06-10T06:03:17.286Z,19.90
2018-06-10T06:04:17.546Z,19.94
2018-06-10T06:05:17.836Z,20.07
2018-06-10T06:06:18.118Z,20.04
2018-06-10T06:07:17.399Z,19.89
2018-06-10T06:08:17.687Z,19.93
2018-06-10T06:09:17.976Z,19.97
2018-06-10T06:10:17.266Z,20.01
2018-06-10T06:11:17.329Z,20.01
2018-06-10T06:12:17.616Z,20.07
2018-06-10T06:13:17.939Z,20.18
2018-06-10T06:14:17.235Z,20.32
2018-06-10T06:15:17.517Z,20.25
2018-06-10T06:16:17.809Z,20.31
2018-06-10T06:17:18.093Z,20.38
2018-06-10T06:18:17.373Z,20.39
2018-06-10T06:19:17.650Z,20.44
2018-06-10T06:20:17.917Z,20.42
2018-06-10T06:21:18.005Z,20.54
2018-06-10T06:22:17.280Z,20.52
2018-06-10T06:23:17.572Z,20.59
2018-06-10T06:24:17.855Z,20.56
2018-06-10T06:25:17.126Z,20.60
2018-06-10T06:26:17.384Z,20.65
2018-06-10T06:27:18.008Z,20.58
2018-06-10T06:28:17.303Z,20.37
2018-06-10T06:29:17.582Z,20.21
2018-06-10T06:30:17.894Z,20.23
2018-06-10T06:31:17.955Z,20.23
2018-06-10T06:32:17.249Z,20.35
2018-06-10T06:33:17.554Z,20.38
2018-06-10T06:34:17.915Z,20.56
2018-06-10T06:35:17.205Z,20.68
2018-06-10T06:36:17.477Z,20.89
2018-06-10T06:37:18.113Z,20.94
2018-06-10T06:38:17.392Z,20.84
2018-06-10T06:39:17.697Z,20.84
2018-06-10T06:40:18.000Z,20.87
2018-06-10T06:41:18.072Z,21.07
2018-06-10T06:42:17.351Z,21.09
2018-06-10T06:43:17.614Z,21.11
2018-06-10T06:44:17.879Z,21.13
2018-06-10T06:45:17.180Z,21.33
2018-06-10T06:46:17.470Z,21.49
2018-06-10T06:47:17.746Z,21.59
2018-06-10T06:48:18.013Z,21.51
2018-06-10T06:49:17.324Z,21.51
2018-06-10T06:50:17.594Z,21.37
2018-06-10T06:51:17.656Z,21.45
2018-06-10T06:52:17.935Z,21.73
2018-06-10T06:53:17.207Z,21.78
2018-06-10T06:54:17.475Z,21.86
2018-06-10T06:55:17.773Z,21.82
2018-06-10T06:56:18.049Z,21.82
2018-06-10T06:57:17.329Z,21.88
2018-06-10T06:58:17.617Z,21.96
2018-06-10T06:59:17.894Z,21.92
2018-06-10T07:00:17.201Z,21.85
2018-06-10T07:01:17.328Z,21.76
2018-06-10T07:02:17.602Z,21.72
2018-06-10T07:03:17.875Z,21.86
2018-06-10T07:04:17.483Z,21.88
2018-06-10T07:05:17.864Z,21.83
2018-06-10T07:06:17.166Z,21.82
2018-06-10T07:07:17.449Z,21.91
2018-06-10T07:08:17.737Z,22.06
2018-06-10T07:09:18.038Z,22.28
2018-06-10T07:10:17.327Z,22.20
2018-06-10T07:11:17.385Z,22.13
2018-06-10T07:12:17.677Z,22.07
2018-06-10T07:13:17.954Z,21.88
2018-06-10T07:14:17.242Z,21.96
2018-06-10T07:15:17.519Z,22.30
2018-06-10T07:16:17.795Z,22.30
2018-06-10T07:17:18.073Z,22.28
2018-06-10T07:18:17.351Z,22.37
2018-06-10T07:19:17.630Z,22.51
2018-06-10T07:20:17.932Z,22.58
2018-06-10T07:21:18.003Z,22.55
2018-06-10T07:22:17.294Z,22.57
2018-06-10T07:23:17.566Z,22.61
2018-06-10T07:24:17.865Z,22.57
2018-06-10T07:25:17.161Z,22.31
2018-06-10T07:26:17.468Z,22.40
2018-06-10T07:27:17.763Z,22.43
2018-06-10T07:28:18.026Z,22.38
2018-06-10T07:29:17.305Z,22.37
2018-06-10T07:30:17.571Z,22.40
2018-06-10T07:31:17.632Z,22.51
2018-06-10T07:32:17.922Z,22.60
2018-06-10T07:33:17.217Z,22.51
2018-06-10T07:34:17.503Z,22.48
2018-06-10T07:35:17.781Z,22.37
2018-06-10T07:36:18.074Z,22.27
2018-06-10T07:37:17.340Z,22.44
2018-06-10T07:38:17.623Z,22.38
2018-06-10T07:39:17.906Z,22.40
2018-06-10T07:40:17.186Z,22.48
2018-06-10T07:41:17.309Z,22.62
2018-06-10T07:42:17.581Z,22.68
2018-06-10T07:43:17.880Z,22.47
2018-06-10T07:44:17.158Z,22.57
2018-06-10T07:45:17.444Z,22.99
2018-06-10T07:46:17.727Z,23.03
2018-06-10T07:47:18.008Z,22.93
2018-06-10T07:48:17.300Z,22.91
2018-06-10T07:49:17.667Z,22.96
2018-06-10T07:50:17.936Z,23.09
2018-06-10T07:51:18.026Z,23.22
2018-06-10T07:52:17.319Z,23.09
2018-06-10T07:53:17.584Z,23.02
2018-06-10T07:54:17.865Z,23.02
2018-06-10T07:55:17.147Z,22.96
2018-06-10T07:56:17.440Z,23.15
2018-06-10T07:57:17.739Z,22.68
2018-06-10T07:58:18.016Z,22.55
2018-06-10T07:59:17.313Z,22.60
2018-06-10T08:00:17.635Z,22.71
2018-06-10T08:01:17.673Z,22.74
2018-06-10T08:02:17.952Z,22.79
2018-06-10T08:03:17.248Z,22.75
2018-06-10T08:04:17.525Z,22.61
2018-06-10T08:05:17.857Z,22.68
2018-06-10T08:06:17.172Z,22.79
2018-06-10T08:07:17.458Z,22.82
2018-06-10T08:08:17.752Z,22.50
2018-06-10T08:09:18.043Z,22.68
2018-06-10T08:10:17.322Z,22.78
2018-06-10T08:11:17.398Z,22.48
2018-06-10T08:12:17.703Z,22.54
2018-06-10T08:13:17.980Z,22.60
2018-06-10T08:14:17.243Z,22.76
2018-06-10T08:15:17.524Z,22.76
2018-06-10T08:16:17.799Z,22.68
2018-06-10T08:17:18.084Z,22.96
2018-06-10T08:18:17.365Z,23.12
2018-06-10T08:19:17.665Z,23.13
2018-06-10T08:20:17.966Z,23.12
2018-06-10T08:21:18.015Z,23.16
2018-06-10T08:22:17.304Z,23.61
2018-06-10T08:23:17.584Z,23.50
2018-06-10T08:24:17.867Z,23.69
2018-06-10T08:25:17.144Z,23.61
2018-06-10T08:26:17.401Z,23.74
2018-06-10T08:27:17.669Z,23.50
2018-06-10T08:28:17.954Z,23.83
2018-06-10T08:29:17.570Z,23.95
2018-06-10T08:30:17.838Z,23.89
2018-06-10T08:31:17.917Z,24.04
2018-06-10T08:32:17.193Z,24.36
2018-06-10T08:33:17.469Z,24.16
2018-06-10T08:34:17.736Z,24.16
2018-06-10T08:35:18.027Z,24.61
2018-06-10T08:36:17.302Z,24.89
2018-06-10T08:37:17.613Z,24.80
2018-06-10T08:38:17.946Z,25.01
2018-06-10T08:39:17.219Z,24.54
2018-06-10T08:40:17.485Z,24.59
2018-06-10T08:41:17.552Z,24.70
2018-06-10T08:42:17.835Z,24.77
2018-06-10T08:43:18.115Z,25.07
2018-06-10T08:44:17.400Z,25.32
2018-06-10T08:45:17.703Z,25.32
2018-06-10T08:46:17.949Z,25.09
2018-06-10T08:47:17.219Z,25.21
2018-06-10T08:48:17.484Z,24.94
2018-06-10T08:49:17.772Z,25.08
2018-06-10T08:50:18.048Z,24.89
2018-06-10T08:51:18.110Z,24.94
2018-06-10T08:52:17.388Z,24.97
2018-06-10T08:53:17.669Z,25.09
2018-06-10T08:54:17.959Z,25.18
2018-06-10T08:55:17.252Z,24.32
2018-06-10T08:56:17.541Z,24.33
2018-06-10T08:57:17.820Z,24.39
2018-06-10T08:58:18.085Z,24.72
2018-06-10T08:59:17.363Z,25.11
2018-06-10T09:00:17.656Z,25.28
2018-06-10T09:01:17.735Z,25.40
2018-06-10T09:02:18.002Z,25.56
2018-06-10T09:03:17.282Z,25.43
2018-06-10T09:04:17.562Z,25.45
2018-06-10T09:05:17.845Z,25.62
2018-06-10T09:06:17.127Z,25.37
2018-06-10T09:07:17.404Z,25.25
2018-06-10T09:08:17.700Z,25.50
2018-06-10T09:09:17.961Z,25.55
2018-06-10T09:10:17.282Z,25.53
2018-06-10T09:11:17.314Z,25.69
2018-06-10T09:12:17.616Z,25.67
2018-06-10T09:13:17.883Z,26.17
2018-06-10T09:14:17.171Z,26.18
2018-06-10T09:15:17.482Z,25.84
2018-06-10T09:16:17.765Z,26.02
2018-06-10T09:17:18.051Z,26.34
2018-06-10T09:18:17.323Z,26.64
2018-06-10T09:19:17.631Z,26.08
2018-06-10T09:20:17.931Z,25.80
2018-06-10T09:21:17.996Z,25.64
2018-06-10T09:22:17.276Z,25.95
2018-06-10T09:23:17.694Z,26.13
2018-06-10T09:24:17.957Z,26.25
2018-06-10T09:25:17.241Z,26.29
2018-06-10T09:26:17.513Z,26.15
2018-06-10T09:27:17.789Z,25.59
2018-06-10T09:28:18.075Z,25.49
2018-06-10T09:29:17.355Z,26.34
2018-06-10T09:30:17.631Z,26.25
2018-06-10T09:31:17.701Z,26.40
2018-06-10T09:32:17.958Z,26.76
2018-06-10T09:33:17.504Z,26.77
2018-06-10T09:34:17.804Z,26.34
2018-06-10T09:35:18.087Z,26.20
2018-06-10T09:36:17.388Z,26.01
2018-06-10T09:37:17.689Z,26.34
2018-06-10T09:38:17.946Z,26.50
2018-06-10T09:39:17.204Z,26.83
2018-06-10T09:40:17.472Z,27.15
2018-06-10T09:41:17.533Z,27.38
2018-06-10T09:42:17.835Z,27.55
2018-06-10T09:43:18.103Z,27.11
2018-06-10T09:44:17.369Z,27.11
2018-06-10T09:45:17.667Z,27.05
2018-06-10T09:46:17.950Z,27.17
2018-06-10T09:47:17.224Z,27.22
2018-06-10T09:48:17.509Z,26.62
2018-06-10T09:49:17.822Z,26.49
2018-06-10T09:50:18.119Z,26.58
2018-06-10T09:51:17.235Z,26.91
2018-06-10T09:52:17.517Z,27.72
2018-06-10T09:53:17.799Z,27.84
2018-06-10T09:54:18.066Z,27.49
2018-06-10T09:55:17.430Z,27.68
2018-06-10T09:56:17.952Z,27.25
2018-06-10T09:57:17.234Z,27.21
2018-06-10T09:58:17.510Z,27.42
2018-06-10T09:59:17.791Z,27.52
2018-06-10T10:00:18.079Z,27.70
2018-06-10T10:01:17.149Z,27.90
2018-06-10T10:02:17.415Z,27.86
2018-06-10T10:03:17.699Z,27.90
2018-06-10T10:04:17.960Z,27.42
2018-06-10T10:05:17.528Z,27.35
2018-06-10T10:06:17.822Z,26.98
2018-06-10T10:07:18.125Z,26.48
2018-06-10T10:08:17.414Z,26.32
2018-06-10T10:09:17.692Z,26.48
2018-06-10T10:10:17.995Z,26.71
2018-06-10T10:11:18.059Z,26.97
2018-06-10T10:12:17.321Z,26.97
2018-06-10T10:13:17.596Z,26.71
2018-06-10T10:14:17.868Z,26.21
2018-06-10T10:15:17.146Z,26.07
2018-06-10T10:16:17.434Z,26.22
2018-06-10T10:17:17.707Z,26.38
2018-06-10T10:18:17.997Z,26.80
2018-06-10T10:19:17.271Z,27.04
2018-06-10T10:20:17.559Z,26.70
2018-06-10T10:21:17.662Z,26.39
2018-06-10T10:22:17.928Z,26.17
2018-06-10T10:23:17.222Z,26.39
2018-06-10T10:24:17.503Z,26.53
2018-06-10T10:25:17.791Z,26.55
2018-06-10T10:26:18.094Z,26.70
2018-06-10T10:27:17.367Z,26.60
2018-06-10T10:28:17.632Z,26.66
2018-06-10T10:29:17.901Z,26.94
2018-06-10T10:30:17.188Z,27.13
2018-06-10T10:31:17.253Z,27.24
2018-06-10T10:32:17.539Z,27.22
2018-06-10T10:33:17.829Z,26.94
2018-06-10T10:34:18.400Z,26.90
2018-06-10T10:35:17.706Z,26.77
2018-06-10T10:36:17.968Z,26.91
2018-06-10T10:37:17.282Z,27.22
2018-06-10T10:38:17.576Z,27.52
2018-06-10T10:39:17.948Z,27.40
2018-06-10T10:40:17.273Z,27.40
2018-06-10T10:41:17.309Z,27.51
2018-06-10T10:42:17.614Z,27.69
2018-06-10T10:43:17.894Z,27.79
2018-06-10T10:44:17.170Z,27.28
2018-06-10T10:45:17.447Z,27.28
2018-06-10T10:46:17.707Z,27.26
2018-06-10T10:47:17.998Z,26.89
2018-06-10T10:48:17.273Z,26.80
2018-06-10T10:49:17.541Z,26.60
2018-06-10T10:50:17.833Z,26.32
2018-06-10T10:51:17.902Z,25.77
2018-06-10T10:52:17.174Z,25.73
2018-06-10T10:53:17.460Z,25.74
2018-06-10T10:54:17.758Z,26.02
2018-06-10T10:55:18.027Z,25.88
2018-06-10T10:56:17.311Z,26.00
2018-06-10T10:57:17.613Z,26.11
2018-06-10T10:58:17.876Z,26.11
2018-06-10T10:59:17.161Z,26.00
2018-06-10T11:00:17.438Z,25.80
2018-06-10T11:01:17.790Z,25.84
2018-06-10T11:02:18.076Z,25.93
2018-06-10T11:03:17.356Z,25.95
2018-06-10T11:04:17.649Z,26.12
2018-06-10T11:05:17.907Z,26.21
2018-06-10T11:06:17.182Z,26.15
2018-06-10T11:07:17.486Z,26.07
2018-06-10T11:08:17.875Z,25.83
2018-06-10T11:09:17.216Z,25.84
2018-06-10T11:10:17.494Z,26.34
2018-06-10T11:11:17.554Z,26.76
2018-06-10T11:12:17.846Z,26.93
2018-06-10T11:13:18.132Z,26.74
2018-06-10T11:14:17.415Z,26.45
2018-06-10T11:15:17.698Z,26.35
2018-06-10T11:16:17.957Z,26.32
2018-06-10T11:17:17.241Z,26.29
2018-06-10T11:18:17.538Z,26.52
2018-06-10T11:19:17.830Z,26.56
2018-06-10T11:20:18.153Z,26.58
2018-06-10T11:21:17.185Z,26.73
2018-06-10T11:22:17.470Z,26.73
2018-06-10T11:23:17.750Z,26.86
2018-06-10T11:24:18.022Z,26.87
2018-06-10T11:25:17.312Z,26.22
2018-06-10T11:26:17.604Z,26.17
2018-06-10T11:27:17.906Z,25.97
2018-06-10T11:28:17.284Z,25.85
2018-06-10T11:29:17.589Z,25.93
2018-06-10T11:30:17.866Z,26.05
2018-06-10T11:31:17.952Z,26.56
2018-06-10T11:32:17.501Z,26.87
2018-06-10T11:33:17.764Z,26.71
2018-06-10T11:34:18.059Z,26.58
2018-06-10T11:35:17.334Z,26.22
2018-06-10T11:36:17.629Z,26.27
2018-06-10T11:37:17.897Z,26.82
2018-06-10T11:38:17.189Z,27.03
2018-06-10T11:39:17.485Z,27.52
2018-06-10T11:40:17.791Z,27.96
2018-06-10T11:41:17.848Z,28.13
2018-06-10T11:42:18.169Z,27.65
2018-06-10T11:43:17.507Z,27.26
2018-06-10T11:44:17.811Z,27.38
2018-06-10T11:45:18.112Z,27.21
2018-06-10T11:46:17.386Z,27.13
2018-06-10T11:47:17.660Z,26.94
2018-06-10T11:48:17.950Z,26.69
2018-06-10T11:49:17.225Z,26.67
2018-06-10T11:50:17.514Z,26.67
2018-06-10T11:51:17.575Z,26.63
2018-06-10T11:52:17.842Z,26.66
2018-06-10T11:53:18.134Z,26.76
2018-06-10T11:54:17.419Z,26.87
2018-06-10T11:55:17.721Z,26.82
2018-06-10T11:56:18.029Z,26.85
2018-06-10T11:57:17.313Z,26.85
2018-06-10T11:58:17.766Z,26.91
2018-06-10T11:59:18.369Z,26.69
2018-06-10T12:00:17.636Z,26.48
2018-06-10T12:01:17.714Z,26.48
2018-06-10T12:02:17.995Z,26.42
2018-06-10T12:03:17.275Z,26.40
2018-06-10T12:04:17.571Z,26.55
2018-06-10T12:05:17.883Z,26.45
2018-06-10T12:06:17.295Z,26.45
2018-06-10T12:07:17.574Z,26.62
2018-06-10T12:08:17.849Z,26.62
2018-06-10T12:09:17.127Z,26.67
2018-06-10T12:10:17.411Z,26.86
2018-06-10T12:11:17.476Z,26.73
2018-06-10T12:12:18.041Z,26.69
2018-06-10T12:13:17.324Z,26.64
2018-06-10T12:14:17.602Z,26.46
2018-06-10T12:15:17.862Z,26.48
2018-06-10T12:16:17.142Z,26.50
2018-06-10T12:17:17.401Z,26.79
2018-06-10T12:18:17.700Z,26.98
2018-06-10T12:19:17.988Z,27.08
2018-06-10T12:20:17.284Z,27.56
2018-06-10T12:21:17.389Z,27.65
2018-06-10T12:22:17.663Z,27.53
2018-06-10T12:23:17.929Z,27.34
2018-06-10T12:24:17.196Z,27.20
2018-06-10T12:25:17.473Z,26.98
2018-06-10T12:26:17.746Z,27.00
2018-06-10T12:27:18.024Z,26.64
2018-06-10T12:28:17.323Z,26.79
2018-06-10T12:29:17.663Z,26.67
2018-06-10T12:30:17.984Z,26.60
2018-06-10T12:31:18.064Z,26.50
2018-06-10T12:32:17.352Z,26.24
2018-06-10T12:33:17.642Z,26.34
2018-06-10T12:34:17.916Z,26.64
2018-06-10T12:35:17.230Z,26.69
2018-06-10T12:36:17.594Z,26.87
2018-06-10T12:37:17.862Z,27.01
2018-06-10T12:38:17.143Z,27.07
2018-06-10T12:39:17.441Z,26.76
2018-06-10T12:40:17.759Z,26.74
2018-06-10T12:41:17.820Z,27.20
2018-06-10T12:42:18.092Z,27.34
2018-06-10T12:43:17.394Z,27.10
2018-06-10T12:44:17.686Z,27.03
2018-06-10T12:45:17.957Z,26.96
2018-06-10T12:46:17.242Z,26.91
2018-06-10T12:47:17.523Z,26.89
2018-06-10T12:48:17.805Z,26.76
2018-06-10T12:49:18.115Z,26.73
2018-06-10T12:50:17.519Z,26.66
2018-06-10T12:51:17.584Z,26.91
2018-06-10T12:52:17.852Z,26.96